createdAt,value
2022-10-20T00:02:19.449Z,102271.69
2022-10-20T00:04:48.274Z,102273.97
2022-10-20T00:07:15.754Z,102275.22
2022-10-20T00:09:44.560Z,102275.31
2022-10-20T00:12:12.032Z,102276.25
2022-10-20T00:14:39.613Z,102279.72
2022-10-20T00:17:07.061Z,102272.88
2022-10-20T00:19:34.469Z,102275.25
2022-10-20T00:22:01.865Z,102273.31
2022-10-20T00:24:29.264Z,102264.88
2022-10-20T00:26:57.974Z,102263.50
2022-10-20T00:29:25.443Z,102260.78
2022-10-20T00:31:52.870Z,102264.88
2022-10-20T00:34:20.261Z,102264.38
2022-10-20T00:36:50.437Z,102268.00
2022-10-20T00:39:18.828Z,102260.78
2022-10-20T00:41:46.276Z,102262.91
2022-10-20T00:44:51.256Z,102249.81
2022-10-20T00:47:22.912Z,102246.81
2022-10-20T00:49:51.161Z,102238.72
2022-10-20T00:52:21.347Z,102233.25
2022-10-20T00:54:50.427Z,102220.97
2022-10-20T00:57:18.369Z,102233.44
2022-10-20T00:59:46.161Z,102226.03
2022-10-20T01:02:15.393Z,102226.56
2022-10-20T01:04:42.854Z,102222.13
2022-10-20T01:07:10.303Z,102222.84
2022-10-20T01:09:39.080Z,102225.16
2022-10-20T01:12:16.084Z,102233.69
2022-10-20T01:14:50.143Z,102221.59
2022-10-20T01:17:27.579Z,102222.06
2022-10-20T01:20:13.241Z,102216.13
2022-10-20T01:23:02.382Z,102216.78
2022-10-20T01:25:47.366Z,102218.41
2022-10-20T01:28:21.244Z,102205.31
2022-10-20T01:30:55.025Z,102194.97
2022-10-20T01:33:33.209Z,102204.50
2022-10-20T01:36:05.643Z,102201.00
2022-10-20T01:38:40.368Z,102205.28
2022-10-20T01:41:14.009Z,102203.94
2022-10-20T01:43:46.734Z,102199.44
2022-10-20T01:46:17.874Z,102196.25
2022-10-20T01:48:47.457Z,102191.03
2022-10-20T01:51:15.015Z,102191.19
2022-10-20T01:53:42.475Z,102194.53
2022-10-20T01:56:17.272Z,102184.78
2022-10-20T01:59:04.282Z,102175.94
2022-10-20T02:01:49.048Z,102172.41
2022-10-20T02:04:20.781Z,102171.41
2022-10-20T02:06:57.763Z,102162.94
2022-10-20T02:09:31.945Z,102163.34
2022-10-20T02:12:04.579Z,102151.41
2022-10-20T02:14:33.809Z,102143.03
2022-10-20T02:17:06.477Z,102151.75
2022-10-20T02:19:37.378Z,102145.00
2022-10-20T02:22:05.959Z,102149.31
2022-10-20T02:24:37.683Z,102144.91
2022-10-20T02:27:11.339Z,102147.78
2022-10-20T02:29:45.396Z,102144.25
2022-10-20T02:32:13.611Z,102147.28
2022-10-20T02:34:42.585Z,102135.03
2022-10-20T02:37:10.503Z,102136.63
2022-10-20T02:39:38.035Z,102130.28
2022-10-20T02:42:05.438Z,102131.44
2022-10-20T02:44:32.862Z,102139.78
2022-10-20T02:47:01.672Z,102133.91
2022-10-20T02:49:29.176Z,102131.75
2022-10-20T02:51:56.580Z,102129.34
2022-10-20T02:54:23.987Z,102131.13
2022-10-20T02:56:51.388Z,102122.91
2022-10-20T02:59:18.801Z,102127.28
2022-10-20T03:01:46.600Z,102122.44
2022-10-20T03:04:16.173Z,102124.91
2022-10-20T03:06:43.651Z,102129.22
2022-10-20T03:09:11.150Z,102116.78
2022-10-20T03:11:38.579Z,102113.16
2022-10-20T03:14:06.126Z,102109.44
2022-10-20T03:16:33.568Z,102114.88
2022-10-20T03:19:04.623Z,102101.44
2022-10-20T03:21:36.066Z,102101.75
2022-10-20T03:24:03.505Z,102105.09
2022-10-20T03:26:31.545Z,102104.41
2022-10-20T03:28:59.002Z,102109.84
2022-10-20T03:31:26.424Z,102102.88
2022-10-20T03:33:53.915Z,102102.75
2022-10-20T03:36:21.508Z,102104.06
2022-10-20T03:38:50.256Z,102090.28
2022-10-20T03:41:17.836Z,102091.66
2022-10-20T03:43:45.231Z,102091.13
2022-10-20T03:46:13.132Z,102102.50
2022-10-20T03:48:42.558Z,102094.00
2022-10-20T03:51:10.135Z,102100.03
2022-10-20T03:53:37.617Z,102103.00
2022-10-20T03:56:11.121Z,102098.22
2022-10-20T03:58:38.552Z,102092.38
2022-10-20T04:01:06.389Z,102085.75
2022-10-20T04:03:33.931Z,102092.44
2022-10-20T04:06:01.768Z,102093.72
2022-10-20T04:08:29.162Z,102085.75
2022-10-20T04:10:56.615Z,102071.19
2022-10-20T04:13:25.399Z,102078.41
2022-10-20T04:15:52.816Z,102069.97
2022-10-20T04:18:20.272Z,102076.66
2022-10-20T04:20:48.409Z,102070.97
2022-10-20T04:23:15.991Z,102078.25
2022-10-20T04:25:47.528Z,102076.22
2022-10-20T04:28:16.246Z,102076.31
2022-10-20T04:30:45.555Z,102069.69
2022-10-20T04:33:13.647Z,102063.94
2022-10-20T04:35:41.656Z,102060.03
2022-10-20T04:38:09.201Z,102058.56
2022-10-20T04:40:36.653Z,102059.13
2022-10-20T04:43:04.360Z,102055.38
2022-10-20T04:45:31.930Z,102056.06
2022-10-20T04:48:00.672Z,102054.91
2022-10-20T04:50:28.036Z,102051.84
2022-10-20T04:52:55.415Z,102050.00
2022-10-20T04:55:22.800Z,102039.94
2022-10-20T04:57:50.357Z,102045.09
2022-10-20T05:00:17.998Z,102043.47
2022-10-20T05:02:45.458Z,102042.41
2022-10-20T05:05:14.338Z,102038.78
2022-10-20T05:07:41.839Z,102035.06
2022-10-20T05:10:09.716Z,102037.44
2022-10-20T05:12:37.446Z,102023.94
2022-10-20T05:15:05.966Z,102025.09
2022-10-20T05:17:33.357Z,102023.78
2022-10-20T05:20:00.744Z,102030.34
2022-10-20T05:22:31.867Z,102019.44
2022-10-20T05:25:12.838Z,102016.34
2022-10-20T05:27:47.591Z,102024.25
2022-10-20T05:30:15.010Z,102017.09
2022-10-20T05:32:42.508Z,102030.13
2022-10-20T05:35:10.364Z,102027.41
2022-10-20T05:37:39.086Z,102018.75
2022-10-20T05:40:08.163Z,102022.34
2022-10-20T05:42:35.825Z,102026.47
2022-10-20T05:45:03.529Z,102028.16
2022-10-20T05:47:30.972Z,102033.31
2022-10-20T05:49:58.448Z,102035.09
2022-10-20T05:52:25.942Z,102036.13
2022-10-20T05:54:54.785Z,102034.97
2022-10-20T05:57:22.523Z,102032.63
2022-10-20T05:59:49.920Z,102024.88
2022-10-20T06:02:17.376Z,102030.03
2022-10-20T06:04:44.804Z,102027.19
2022-10-20T06:07:12.176Z,102040.09
2022-10-20T06:09:40.373Z,102037.91
2022-10-20T06:14:41.578Z,102039.59
2022-10-20T06:17:10.151Z,102037.78
2022-10-20T06:19:37.596Z,102038.44
2022-10-20T06:22:06.728Z,102040.25
2022-10-20T06:24:34.444Z,102041.94
2022-10-20T06:27:02.145Z,102033.50
2022-10-20T06:29:30.853Z,102040.78
2022-10-20T06:31:58.270Z,102027.09
2022-10-20T06:34:27.089Z,102036.44
2022-10-20T06:36:54.615Z,102035.09
2022-10-20T06:39:23.770Z,102035.38
2022-10-20T06:41:53.593Z,102033.66
2022-10-20T06:44:23.097Z,102032.75
2022-10-20T06:46:53.137Z,102024.78
2022-10-20T06:49:21.177Z,102021.19
2022-10-20T06:51:48.610Z,102018.44
2022-10-20T06:54:16.179Z,102019.63
2022-10-20T06:56:43.535Z,102024.44
2022-10-20T06:59:10.954Z,102015.72
2022-10-20T07:01:39.821Z,102015.69
2022-10-20T07:04:11.977Z,102006.03
2022-10-20T07:06:42.041Z,102019.09
2022-10-20T07:09:13.982Z,102016.22
2022-10-20T07:11:44.511Z,102006.25
2022-10-20T07:14:14.166Z,102005.72
2022-10-20T07:16:42.132Z,102000.63
